• Join FlightAware (Why Join?)
  • Login
  • US Flag 
12:44PM EDT


 

Airport Tracker/Info


-or-


 

Live Flight TrackerFlight Track Log ✈ N3086H ✈ 03-Sep-2013 ✈ KEYW - KAPF

Flight Track Log - Related Links

Times and Time Zones

All times are in EDT time to prevent confusion due to time zone crossing. See the N3086H flight status page for this flight to view local times or setup timezone preferences in your user account.

Time Position Orientation Groundspeed Altitude Reporting Facility
EDT Latitude Longitude Course Direction KTS MPH feet Rate Location/Type
08:46AM 24.5389 -81.6892 35° Northeast 125 144 3,700  Level Miami Center
08:47AM 24.7390 -81.8812 324° Northwest  Level FlightAware Approximate
08:47AM 24.5708 -81.6700 29° Northeast 128 147 4,300  Level Miami Center
08:48AM 24.7692 -81.9053 324° Northwest  Level FlightAware Approximate
08:48AM 24.6089 -81.6578 16° North 140 161 5,000  Level Miami Center
08:49AM 24.7997 -81.9289 326° Northwest  Level FlightAware Approximate
08:49AM 24.6403 -81.6497 13° North 128 147 5,600  Level Miami Center
08:50AM 24.8305 -81.9520 326° Northwest  Level FlightAware Approximate
08:50AM 24.6758 -81.6514 358° North 122 140 6,100  Level Miami Center
08:51AM 24.7197 -81.6506 North 134 154 5,900 -60 Descending Miami Center
08:52AM 24.7636 -81.6500 North 147 169 6,000  Climbing Miami Center
08:53AM 24.8072 -81.6542 355° North 152 175 6,000  Level Miami Center
08:54AM 24.8533 -81.6558 358° North 158 182 6,000  Level Miami Center
08:55AM 24.8989 -81.6600 355° North 158 182 6,000  Level Miami Center
08:56AM 24.9469 -81.6642 356° North 158 182 6,100  Climbing Miami Center
08:57AM 24.9928 -81.6658 358° North 158 182 6,100  Level Miami Center
08:58AM 25.0386 -81.6700 355° North 158 182 6,100  Level Miami Center
08:59AM 25.0867 -81.6719 358° North 158 182 6,100  Level Miami Center
09:00AM 25.1325 -81.6758 356° North 158 182 6,100  Level Miami Center
09:01AM 25.1783 -81.6778 358° North 158 182 6,100  Level Miami Center
09:02AM 25.2239 -81.6842 353° North 158 182 6,100  Level Miami Center
09:03AM 25.2719 -81.6861 358° North 158 182 6,100 -60 Level Miami Center
09:04AM 25.3072 -81.6919 351° North 158 182 6,000 -60 Descending Miami Center
09:05AM 25.3633 -81.7033 350° North 158 182 6,000  Level Miami Center
09:06AM 25.4089 -81.7122 350° North 158 182 6,000  Level Miami Center
09:07AM 25.4544 -81.7208 350° North 158 182 6,100 -120 Climbing Miami Center
09:08AM 25.5022 -81.7319 348° North 163 188 5,800 -420 Descending Miami Center
09:09AM 25.5519 -81.7456 346° North 169 194 5,300 -540 Descending Miami Center
09:10AM 25.5997 -81.7497 356° North 184 212 4,800 -600 Descending Miami Center
09:11AM 25.6558 -81.7611 350° North 184 212 4,200 -360 Descending Miami Center
09:12AM 25.7039 -81.7608 360° North 178 205 4,100 -60 Descending Miami Center
09:13AM 25.7517 -81.7628 358° North 173 199 4,100  Level Miami Center
09:14AM 25.7997 -81.7672 355° North 173 199 4,100 -300 Level Miami Center
09:15AM 25.8494 -81.7739 353° North 178 205 3,500 -660 Descending Miami Center
09:16AM 25.9014 -81.7806 353° North 183 211 2,800 -660 Descending Miami Center
09:17AM 25.9536 -81.7872 353° North 183 211 2,200 -600 Descending Miami Center
09:18AM 26.0075 -81.7917 356° North 183 211 1,600 -360 Descending Miami Center
09:19AM 26.0556 -81.7961 355° North 178 205 1,500 -240 Descending Miami Center
09:20AM 26.1036 -81.7958 360° North 178 205 1,200 -600 Descending Miami Center
09:21AM 26.1372 -81.7903 North 156 180 300 -540 Descending Miami Center
09:22AM 26.1853 -81.7875 North 150 173 200 -120 Descending Miami Center
09:24AM 26.1524 -81.7756 152° Southeast  Level Estimated